createdAt,value
2022-08-21T00:01:34.606Z,98239.97
2022-08-21T00:03:40.011Z,98228.00
2022-08-21T00:05:47.736Z,98231.63
2022-08-21T00:07:52.807Z,98228.84
2022-08-21T00:09:57.647Z,98227.41
2022-08-21T00:12:02.589Z,98234.59
2022-08-21T00:14:10.661Z,98229.31
2022-08-21T00:16:15.520Z,98229.47
2022-08-21T00:18:26.007Z,98224.88
2022-08-21T00:20:31.606Z,98225.59
2022-08-21T00:22:36.596Z,98221.75
2022-08-21T00:24:41.523Z,98219.09
2022-08-21T00:26:46.612Z,98221.03
2022-08-21T00:28:51.351Z,98229.47
2022-08-21T00:30:57.279Z,98229.78
2022-08-21T00:33:03.138Z,98225.34
2022-08-21T00:35:13.833Z,98212.97
2022-08-21T00:37:18.755Z,98218.50
2022-08-21T00:39:25.146Z,98207.47
2022-08-21T00:41:38.370Z,98212.53
2022-08-21T00:43:44.092Z,98215.16
2022-08-21T00:45:48.953Z,98220.56
2022-08-21T00:47:56.161Z,98227.75
2022-08-21T00:50:01.159Z,98227.75
2022-08-21T00:52:10.901Z,98230.19
2022-08-21T00:54:18.640Z,98220.69
2022-08-21T00:56:25.611Z,98225.25
2022-08-21T00:58:33.199Z,98228.47
2022-08-21T01:00:40.906Z,98234.63
2022-08-21T01:02:46.199Z,98237.09
2022-08-21T01:04:51.514Z,98226.09
2022-08-21T01:06:56.935Z,98224.28
2022-08-21T01:09:04.599Z,98223.91
2022-08-21T01:11:10.097Z,98232.22
2022-08-21T01:13:17.276Z,98228.59
2022-08-21T01:15:26.884Z,98225.59
2022-08-21T01:17:32.449Z,98224.06
2022-08-21T01:19:37.278Z,98226.31
2022-08-21T01:21:45.085Z,98228.00
2022-08-21T01:23:53.329Z,98228.72
2022-08-21T01:25:58.293Z,98228.72
2022-08-21T01:28:08.790Z,98229.19
2022-08-21T01:30:17.439Z,98226.19
2022-08-21T01:32:23.990Z,98229.66
2022-08-21T01:34:29.238Z,98224.28
2022-08-21T01:36:33.913Z,98228.25
2022-08-21T01:38:41.405Z,98227.75
2022-08-21T01:40:46.563Z,98226.19
2022-08-21T01:42:51.192Z,98221.13
2022-08-21T01:44:56.226Z,98227.38
2022-08-21T01:47:02.133Z,98216.69
2022-08-21T01:49:07.919Z,98223.53
2022-08-21T01:51:13.027Z,98217.78
2022-08-21T01:53:19.844Z,98220.78
2022-08-21T01:55:35.496Z,98223.44
2022-08-21T01:57:40.414Z,98218.84
2022-08-21T01:59:45.398Z,98220.19
2022-08-21T02:01:50.246Z,98219.13
2022-08-21T02:03:55.173Z,98222.47
2022-08-21T02:06:00.538Z,98219.59
2022-08-21T02:08:06.244Z,98215.75
2022-08-21T02:10:12.915Z,98209.31
2022-08-21T02:12:20.410Z,98209.41
2022-08-21T02:14:32.347Z,98204.97
2022-08-21T02:16:38.348Z,98202.94
2022-08-21T02:18:43.264Z,98204.47
2022-08-21T02:20:55.650Z,98198.13
2022-08-21T02:23:02.043Z,98196.34
2022-08-21T02:25:07.847Z,98208.91
2022-08-21T02:27:12.677Z,98210.03
2022-08-21T02:29:20.275Z,98216.47
2022-08-21T02:31:25.662Z,98210.69
2022-08-21T02:33:31.220Z,98216.91
2022-08-21T02:35:36.113Z,98218.72
2022-08-21T02:37:47.958Z,98215.84
2022-08-21T02:39:52.855Z,98217.41
2022-08-21T02:41:57.824Z,98216.34
2022-08-21T02:44:03.977Z,98218.75
2022-08-21T02:46:13.246Z,98218.47
2022-08-21T02:48:20.223Z,98222.81
2022-08-21T02:50:28.003Z,98219.53
2022-08-21T02:52:33.502Z,98224.97
2022-08-21T02:54:38.382Z,98212.59
2022-08-21T02:56:43.428Z,98210.22
2022-08-21T02:58:51.995Z,98209.75
2022-08-21T03:00:57.556Z,98214.91
2022-08-21T03:03:05.831Z,98215.38
2022-08-21T03:05:12.664Z,98215.03
2022-08-21T03:07:19.608Z,98213.00
2022-08-21T03:09:25.173Z,98211.94
2022-08-21T03:11:30.245Z,98208.22
2022-08-21T03:13:35.318Z,98207.38
2022-08-21T03:15:41.157Z,98213.59
2022-08-21T03:17:46.026Z,98216.94
2022-08-21T03:19:53.498Z,98217.28
2022-08-21T03:21:59.528Z,98222.44
2022-08-21T03:24:04.662Z,98227.38
2022-08-21T03:26:10.012Z,98227.06
2022-08-21T03:28:18.859Z,98222.00
2022-08-21T03:30:25.678Z,98226.44
2022-08-21T03:32:32.787Z,98225.56
2022-08-21T03:34:37.732Z,98220.50
2022-08-21T03:36:45.319Z,98224.44
2022-08-21T03:38:50.307Z,98228.66
2022-08-21T03:40:55.162Z,98227.69
2022-08-21T03:42:59.970Z,98226.25
2022-08-21T03:45:04.896Z,98231.38
2022-08-21T03:47:10.985Z,98223.97
2022-08-21T03:49:16.144Z,98231.06
2022-08-21T03:51:20.773Z,98228.38
2022-08-21T03:53:28.450Z,98232.06
2022-08-21T03:55:33.364Z,98244.97
2022-08-21T03:57:38.403Z,98240.88
2022-08-21T03:59:44.374Z,98247.28
2022-08-21T04:01:56.861Z,98240.25
2022-08-21T04:04:01.977Z,98232.97
2022-08-21T04:06:07.454Z,98237.75
2022-08-21T04:08:12.602Z,98241.38
2022-08-21T04:10:20.466Z,98247.56
2022-08-21T04:12:25.367Z,98242.06
2022-08-21T04:14:31.335Z,98237.25
2022-08-21T04:16:36.227Z,98239.09
2022-08-21T04:18:41.179Z,98235.53
2022-08-21T04:20:50.507Z,98245.47
2022-08-21T04:22:56.235Z,98240.66
2022-08-21T04:25:01.148Z,98245.59
2022-08-21T04:27:08.577Z,98244.28
2022-08-21T04:29:13.431Z,98238.88
2022-08-21T04:31:20.720Z,98242.59
2022-08-21T04:33:26.058Z,98249.56
2022-08-21T04:35:32.436Z,98244.78
2022-08-21T04:37:42.008Z,98248.13
2022-08-21T04:39:51.481Z,98253.03
2022-08-21T04:41:58.265Z,98249.41
2022-08-21T04:44:06.318Z,98253.44
2022-08-21T04:46:13.490Z,98259.91
2022-08-21T04:48:20.973Z,98260.75
2022-08-21T04:50:31.911Z,98267.09
2022-08-21T04:52:42.854Z,98266.59
2022-08-21T04:54:51.998Z,98272.91
2022-08-21T04:57:04.562Z,98275.75
2022-08-21T04:59:18.570Z,98276.94
2022-08-21T05:01:27.882Z,98283.88
2022-08-21T05:03:34.527Z,98283.25
2022-08-21T05:05:39.631Z,98289.13
2022-08-21T05:07:46.607Z,98286.50
2022-08-21T05:09:51.617Z,98285.56
2022-08-21T05:11:57.040Z,98285.91
2022-08-21T05:14:02.213Z,98290.50
2022-08-21T05:16:09.776Z,98288.09
2022-08-21T05:18:14.735Z,98285.22
2022-08-21T05:20:20.765Z,98282.81
2022-08-21T05:22:27.069Z,98296.81
2022-08-21T05:24:32.347Z,98294.31
2022-08-21T05:26:38.355Z,98298.13
2022-08-21T05:28:50.748Z,98295.88
2022-08-21T05:30:55.548Z,98294.53
2022-08-21T05:33:04.608Z,98294.41
2022-08-21T05:35:10.964Z,98297.63
2022-08-21T05:37:16.200Z,98288.69
2022-08-21T05:39:21.232Z,98291.81
2022-08-21T05:41:26.510Z,98290.44
2022-08-21T05:43:31.354Z,98294.91
2022-08-21T05:45:42.673Z,98294.06
2022-08-21T05:47:48.938Z,98295.75
2022-08-21T05:49:56.424Z,98287.72
2022-08-21T05:52:01.264Z,98293.97
2022-08-21T05:54:06.334Z,98296.22
2022-08-21T05:56:11.665Z,98292.03
2022-08-21T05:58:17.302Z,98297.06
2022-08-21T06:00:24.142Z,98303.19
2022-08-21T06:02:29.067Z,98294.44
2022-08-21T06:04:34.072Z,98297.53
2022-08-21T06:06:41.803Z,98296.50
2022-08-21T06:08:47.028Z,98296.75
2022-08-21T06:10:52.049Z,98299.16
2022-08-21T06:12:58.033Z,98299.25
2022-08-21T06:15:02.999Z,98297.47
2022-08-21T06:17:08.672Z,98297.63
2022-08-21T06:19:13.533Z,98299.53
2022-08-21T06:21:18.698Z,98304.56
2022-08-21T06:23:33.225Z,98307.34
2022-08-21T06:25:39.354Z,98300.97
2022-08-21T06:27:44.325Z,98306.34
2022-08-21T06:29:49.049Z,98308.75
2022-08-21T06:31:55.008Z,98303.72
2022-08-21T06:34:01.012Z,98309.84
2022-08-21T06:36:06.270Z,98314.09
2022-08-21T06:38:11.825Z,98316.91
2022-08-21T06:40:22.009Z,98314.28
2022-08-21T06:42:28.882Z,98319.91
2022-08-21T06:44:34.026Z,98317.66
2022-08-21T06:46:38.778Z,98315.13
2022-08-21T06:48:43.614Z,98316.81
2022-08-21T06:50:48.720Z,98323.03
2022-08-21T06:52:53.587Z,98326.06
2022-08-21T06:54:58.523Z,98321.38
2022-08-21T06:57:06.345Z,98322.44
2022-08-21T06:59:11.271Z,98323.88
2022-08-21T07:01:16.565Z,98325.66
2022-08-21T07:03:26.048Z,98327.22
2022-08-21T07:05:31.951Z,98328.53
2022-08-21T07:07:36.963Z,98329.25
2022-08-21T07:09:41.801Z,98329.00
2022-08-21T07:11:49.217Z,98327.19
2022-08-21T07:13:57.631Z,98322.88
2022-08-21T07:16:04.315Z,98318.69
2022-08-21T07:18:09.708Z,98329.50
2022-08-21T07:20:14.635Z,98325.56
2022-08-21T07:22:22.314Z,98328.84
2022-08-21T07:24:27.296Z,98326.81
2022-08-21T07:26:32.240Z,98324.75
2022-08-21T07:28:37.105Z,98330.16
2022-08-21T07:30:44.581Z,98327.53
2022-08-21T07:32:50.342Z,98321.13
2022-08-21T07:34:55.238Z,98326.03
2022-08-21T07:37:06.032Z,98327.34
2022-08-21T07:39:14.960Z,98330.44
2022-08-21T07:41:22.015Z,98328.91
2022-08-21T07:43:29.955Z,98327.13
2022-08-21T07:45:34.916Z,98325.56
2022-08-21T07:47:43.145Z,98318.72
2022-08-21T07:49:48.095Z,98326.03
2022-08-21T07:51:53.077Z,98322.66
2022-08-21T07:54:00.303Z,98317.47
2022-08-21T07:56:05.696Z,98318.41
2022-08-21T07:58:10.687Z,98319.69
2022-08-21T08:00:19.155Z,98313.97
2022-08-21T08:02:28.700Z,98313.34
2022-08-21T08:04:36.117Z,98314.03
2022-08-21T08:06:41.023Z,98311.84
2022-08-21T08:08:46.699Z,98316.38
2022-08-21T08:10:51.634Z,98317.47
2022-08-21T08:12:58.243Z,98317.47
2022-08-21T08:15:05.088Z,98311.34
2022-08-21T08:17:10.117Z,98306.03
2022-08-21T08:19:15.179Z,98310.81
2022-08-21T08:21:26.389Z,98310.56
2022-08-21T08:23:31.817Z,98311.03
2022-08-21T08:25:37.066Z,98312.31
2022-08-21T08:27:42.612Z,98311.34
2022-08-21T08:29:49.244Z,98307.34
2022-08-21T08:31:54.739Z,98305.53
2022-08-21T08:33:59.583Z,98300.59
2022-08-21T08:36:07.909Z,98296.31
2022-08-21T08:38:19.748Z,98293.72
2022-08-21T08:40:34.269Z,98294.41
2022-08-21T08:42:40.580Z,98287.56
2022-08-21T08:44:46.279Z,98286.38
2022-08-21T08:46:54.076Z,98288.66
2022-08-21T08:49:06.424Z,98290.53
2022-08-21T08:51:21.564Z,98297.81
2022-08-21T08:53:35.972Z,98284.03
2022-08-21T08:55:46.400Z,98289.03
2022-08-21T08:57:54.072Z,98294.06
2022-08-21T09:00:02.920Z,98292.25
2022-08-21T09:02:09.021Z,98294.25
2022-08-21T09:04:15.962Z,98297.06
2022-08-21T09:06:32.438Z,98302.66
2022-08-21T09:08:52.752Z,98299.47
2022-08-21T09:11:05.115Z,98300.31
2022-08-21T09:13:18.839Z,98301.44
2022-08-21T09:15:30.576Z,98291.75
2022-08-21T09:17:48.943Z,98288.81
2022-08-21T09:20:03.368Z,98287.16
2022-08-21T09:22:21.222Z,98284.63
2022-08-21T09:24:35.223Z,98279.91
2022-08-21T09:26:54.792Z,98289.38
2022-08-21T09:29:03.336Z,98286.03
2022-08-21T09:31:11.594Z,98286.28
2022-08-21T09:33:18.496Z,98284.19
2022-08-21T09:35:25.856Z,98279.06
2022-08-21T09:37:32.742Z,98277.25
2022-08-21T09:39:46.934Z,98271.88
2022-08-21T09:42:00.133Z,98279.63
2022-08-21T09:44:05.409Z,98278.59
2022-08-21T09:46:13.650Z,98276.66
2022-08-21T09:48:22.553Z,98274.63
2022-08-21T09:50:31.883Z,98275.00
2022-08-21T09:52:36.456Z,98264.66
2022-08-21T09:54:44.582Z,98259.34
2022-08-21T09:57:11.702Z,98260.66
2022-08-21T09:59:23.208Z,98259.41
2022-08-21T10:01:29.875Z,98259.97
2022-08-21T10:03:34.955Z,98265.47
2022-08-21T10:05:40.999Z,98260.16
2022-08-21T10:07:45.904Z,98262.25
2022-08-21T10:10:02.493Z,98262.00
2022-08-21T10:12:20.591Z,98261.72
2022-08-21T10:14:45.174Z,98250.97
2022-08-21T10:17:05.951Z,98253.47
2022-08-21T10:19:23.794Z,98247.22
2022-08-21T10:21:35.022Z,98251.97
2022-08-21T10:23:49.463Z,98251.13
2022-08-21T10:26:14.270Z,98256.84
2022-08-21T10:28:28.402Z,98260.91
2022-08-21T10:30:42.404Z,98257.97
2022-08-21T10:33:01.950Z,98258.94
2022-08-21T10:35:15.884Z,98256.00
2022-08-21T10:37:47.878Z,98257.41
2022-08-21T10:40:06.476Z,98253.88
2022-08-21T10:42:37.227Z,98253.72
2022-08-21T10:44:59.173Z,98246.13
2022-08-21T10:47:08.539Z,98243.22
2022-08-21T10:49:24.685Z,98239.44
2022-08-21T10:51:38.238Z,98241.09
2022-08-21T10:53:59.552Z,98242.28
2022-08-21T10:56:16.170Z,98246.72
2022-08-21T10:58:29.610Z,98236.50
2022-08-21T11:00:42.768Z,98234.97
2022-08-21T11:02:55.667Z,98227.94
2022-08-21T11:05:06.468Z,98234.75
2022-08-21T11:07:22.039Z,98228.41
2022-08-21T11:09:30.194Z,98231.19
2022-08-21T11:11:43.849Z,98230.06
2022-08-21T11:13:59.557Z,98218.28
2022-08-21T11:16:11.332Z,98224.56
2022-08-21T11:18:26.222Z,98224.41
2022-08-21T11:20:36.532Z,98223.31
2022-08-21T11:22:54.294Z,98220.66
2022-08-21T11:25:08.268Z,98220.53
2022-08-21T11:27:21.307Z,98225.28
2022-08-21T11:29:33.211Z,98218.81
2022-08-21T11:31:51.732Z,98207.31
2022-08-21T11:34:11.842Z,98211.28
2022-08-21T11:36:26.798Z,98210.22
2022-08-21T11:38:39.820Z,98211.06
2022-08-21T11:41:04.414Z,98208.19
2022-08-21T11:43:20.855Z,98208.88
2022-08-21T11:45:34.767Z,98204.22
2022-08-21T11:47:56.151Z,98204.91
2022-08-21T11:50:34.902Z,98197.91
2022-08-21T11:52:48.658Z,98193.91
2022-08-21T11:55:00.552Z,98194.81
2022-08-21T11:57:09.665Z,98193.28
2022-08-21T11:59:22.516Z,98192.63
2022-08-21T12:01:35.266Z,98190.78
2022-08-21T12:03:44.013Z,98188.38
2022-08-21T12:05:57.812Z,98179.63
2022-08-21T12:08:10.452Z,98176.72
2022-08-21T12:10:18.718Z,98168.66
2022-08-21T12:12:29.807Z,98173.63
2022-08-21T12:14:43.006Z,98165.03
2022-08-21T12:16:52.649Z,98165.16
2022-08-21T12:19:07.820Z,98162.88
2022-08-21T12:21:26.437Z,98157.28
2022-08-21T12:23:37.958Z,98159.81
2022-08-21T12:25:45.624Z,98162.75
2022-08-21T12:27:54.551Z,98161.47
2022-08-21T12:30:03.012Z,98152.00
2022-08-21T12:32:31.014Z,98156.31
2022-08-21T12:34:39.756Z,98156.00
2022-08-21T12:36:52.165Z,98157.00
2022-08-21T12:39:01.387Z,98161.22
2022-08-21T12:41:10.226Z,98152.41
2022-08-21T12:43:25.633Z,98159.72
2022-08-21T12:45:35.093Z,98153.06
2022-08-21T12:47:52.171Z,98156.53
2022-08-21T12:50:02.864Z,98150.75
2022-08-21T12:52:20.854Z,98153.63
2022-08-21T12:54:29.483Z,98145.66
2022-08-21T12:56:40.173Z,98142.34
2022-08-21T12:58:49.568Z,98148.19
2022-08-21T13:00:56.871Z,98146.69
2022-08-21T13:03:04.366Z,98143.88
2022-08-21T13:05:12.405Z,98141.03
2022-08-21T13:07:25.668Z,98135.00
2022-08-21T13:09:33.542Z,98131.19
2022-08-21T13:11:40.813Z,98133.19
2022-08-21T13:13:51.684Z,98130.19
2022-08-21T13:16:02.226Z,98125.19
2022-08-21T13:18:10.711Z,98125.00
2022-08-21T13:20:28.011Z,98129.53
2022-08-21T13:22:34.896Z,98128.19
2022-08-21T13:24:43.420Z,98130.50
2022-08-21T13:26:48.843Z,98138.84
2022-08-21T13:28:54.250Z,98129.34
2022-08-21T13:30:59.905Z,98122.34
2022-08-21T13:33:13.268Z,98119.38
2022-08-21T13:35:21.193Z,98120.69
2022-08-21T13:37:29.191Z,98113.19
2022-08-21T13:39:34.690Z,98121.84
2022-08-21T13:41:42.537Z,98115.84
2022-08-21T13:43:53.431Z,98117.84
2022-08-21T13:45:59.814Z,98116.34
2022-08-21T13:48:06.836Z,98118.34
2022-08-21T13:50:17.488Z,98113.53
2022-08-21T13:52:24.545Z,98117.38
2022-08-21T13:54:32.876Z,98120.19
2022-08-21T13:56:47.320Z,98121.84
2022-08-21T13:58:52.287Z,98115.00
2022-08-21T14:00:59.054Z,98111.34
2022-08-21T14:03:08.748Z,98114.34
2022-08-21T14:05:24.981Z,98114.38
2022-08-21T14:07:35.245Z,98117.00
2022-08-21T14:09:45.904Z,98115.31
2022-08-21T14:11:50.887Z,98113.94
2022-08-21T14:14:00.542Z,98114.28
2022-08-21T14:16:13.730Z,98112.78
2022-08-21T14:18:20.813Z,98110.09
2022-08-21T14:20:36.931Z,98109.88
2022-08-21T14:22:44.554Z,98106.84
2022-08-21T14:24:49.764Z,98104.97
2022-08-21T14:27:05.542Z,98103.59
2022-08-21T14:29:12.593Z,98098.63
2022-08-21T14:31:20.030Z,98096.59
2022-08-21T14:33:30.122Z,98093.66
2022-08-21T14:35:37.661Z,98090.91
2022-08-21T14:37:45.720Z,98091.81
2022-08-21T14:39:51.047Z,98086.78
2022-08-21T14:41:56.167Z,98085.44
2022-08-21T14:44:08.206Z,98086.06
2022-08-21T14:46:16.783Z,98081.06
2022-08-21T14:48:21.648Z,98080.81
2022-08-21T14:50:28.205Z,98082.66
2022-08-21T14:52:36.622Z,98083.53
2022-08-21T14:54:41.511Z,98082.13
2022-08-21T14:56:46.172Z,98081.44
2022-08-21T14:58:53.265Z,98075.53
2022-08-21T15:00:59.337Z,98075.91
2022-08-21T15:03:04.316Z,98071.91
2022-08-21T15:05:09.621Z,98075.81
2022-08-21T15:07:14.442Z,98065.53
2022-08-21T15:09:22.102Z,98062.88
2022-08-21T15:11:42.482Z,98056.78
2022-08-21T15:13:48.414Z,98051.91
2022-08-21T15:15:57.042Z,98059.28
2022-08-21T15:18:02.015Z,98052.72
2022-08-21T15:20:08.841Z,98049.13
2022-08-21T15:22:15.388Z,98036.31
2022-08-21T15:24:29.250Z,98038.88
2022-08-21T15:26:34.529Z,98042.22
2022-08-21T15:28:40.459Z,98041.66
2022-08-21T15:30:45.699Z,98037.63
2022-08-21T15:32:50.578Z,98043.75
2022-08-21T15:34:55.194Z,98039.88
2022-08-21T15:37:01.310Z,98037.19
2022-08-21T15:39:06.694Z,98028.25
2022-08-21T15:41:14.859Z,98029.56
2022-08-21T15:43:30.073Z,98030.41
2022-08-21T15:45:36.397Z,98026.41
2022-08-21T15:47:42.358Z,98026.50
2022-08-21T15:49:47.705Z,98026.19
2022-08-21T15:51:53.680Z,98022.97
2022-08-21T15:53:58.525Z,98016.84
2022-08-21T15:56:04.620Z,98012.16
2022-08-21T15:58:17.441Z,98013.22
2022-08-21T16:00:25.772Z,98013.22
2022-08-21T16:02:34.045Z,98011.47
2022-08-21T16:04:38.981Z,98007.81
2022-08-21T16:06:55.224Z,98008.53
2022-08-21T16:09:00.663Z,98005.78
2022-08-21T16:11:05.786Z,98004.56
2022-08-21T16:13:19.001Z,98009.94
2022-08-21T16:15:24.122Z,98001.38
2022-08-21T16:17:32.080Z,98004.47
2022-08-21T16:19:38.697Z,97996.25
2022-08-21T16:21:43.700Z,97996.19
2022-08-21T16:23:49.551Z,97989.53
2022-08-21T16:25:54.423Z,97991.91
2022-08-21T16:28:02.748Z,97993.38
2022-08-21T16:30:11.469Z,98001.00
2022-08-21T16:32:17.212Z,97991.88
2022-08-21T16:34:23.156Z,97998.03
2022-08-21T16:36:29.029Z,97995.88
2022-08-21T16:38:34.865Z,97986.81
2022-08-21T16:40:42.243Z,97987.44
2022-08-21T16:42:47.343Z,97990.88
2022-08-21T16:44:52.525Z,97988.50
2022-08-21T16:47:00.017Z,97985.72
2022-08-21T16:49:05.694Z,97984.41
2022-08-21T16:51:10.625Z,97987.97
2022-08-21T16:53:15.212Z,97981.91
2022-08-21T16:55:20.720Z,97983.41
2022-08-21T16:57:25.727Z,97981.63
2022-08-21T16:59:30.545Z,97983.72
2022-08-21T17:01:37.294Z,97986.56
2022-08-21T17:03:47.740Z,97976.56
2022-08-21T17:05:52.638Z,97982.13
2022-08-21T17:07:57.461Z,97981.91
2022-08-21T17:10:02.264Z,97986.94
2022-08-21T17:12:08.086Z,97983.31
2022-08-21T17:14:16.478Z,97987.00
2022-08-21T17:16:21.759Z,97978.47
2022-08-21T17:18:30.827Z,97984.66
2022-08-21T17:20:38.329Z,97982.03
2022-08-21T17:22:43.261Z,97984.19
2022-08-21T17:24:47.850Z,97984.25
2022-08-21T17:26:53.265Z,97985.56
2022-08-21T17:28:58.190Z,97984.94
2022-08-21T17:31:03.279Z,97990.09
2022-08-21T17:33:24.736Z,97982.75
2022-08-21T17:35:29.698Z,97987.28
2022-08-21T17:37:36.969Z,97984.28
2022-08-21T17:39:41.981Z,97990.13
2022-08-21T17:41:47.739Z,97986.66
2022-08-21T17:43:58.372Z,97987.47
2022-08-21T17:46:03.258Z,97979.97
2022-08-21T17:48:08.495Z,97983.31
2022-08-21T17:50:16.821Z,97985.16
2022-08-21T17:52:27.599Z,97985.50
2022-08-21T17:54:35.014Z,97983.13
2022-08-21T17:56:42.358Z,97989.47
2022-08-21T17:58:51.387Z,97988.13
2022-08-21T18:00:56.479Z,97986.47
2022-08-21T18:03:04.644Z,97984.16
2022-08-21T18:05:13.528Z,97987.97
2022-08-21T18:07:31.819Z,97989.97
2022-08-21T18:09:39.976Z,97986.13
2022-08-21T18:11:46.062Z,97987.63
2022-08-21T18:13:50.986Z,97991.63
2022-08-21T18:15:56.448Z,97994.63
2022-08-21T18:18:01.384Z,97986.28
2022-08-21T18:20:09.137Z,97987.44
2022-08-21T18:22:14.125Z,98000.25
2022-08-21T18:24:19.087Z,97993.44
2022-08-21T18:26:28.986Z,98000.56
2022-08-21T18:28:34.250Z,97997.03
2022-08-21T18:30:42.784Z,97998.34
2022-08-21T18:32:49.469Z,98010.34
2022-08-21T18:34:56.720Z,98003.66
2022-08-21T18:37:01.783Z,98005.00
2022-08-21T18:39:34.538Z,98014.44
2022-08-21T18:41:35.643Z,98008.63
2022-08-21T18:43:41.839Z,98013.59
2022-08-21T18:45:47.196Z,98018.56
2022-08-21T18:47:55.119Z,98009.38
2022-08-21T18:50:00.412Z,98025.16
2022-08-21T18:52:06.863Z,98017.50
2022-08-21T18:54:13.031Z,98017.31
2022-08-21T18:56:18.602Z,98019.59
2022-08-21T18:58:27.004Z,98022.88
2022-08-21T19:00:35.704Z,98015.66
2022-08-21T19:02:40.721Z,98019.63
2022-08-21T19:04:49.369Z,98020.41
2022-08-21T19:06:54.694Z,98017.00
2022-08-21T19:09:01.548Z,98012.78
2022-08-21T19:11:07.110Z,98022.53
2022-08-21T19:13:14.836Z,98019.50
2022-08-21T19:15:24.190Z,98025.00
2022-08-21T19:17:30.737Z,98028.78
2022-08-21T19:19:36.394Z,98024.91
2022-08-21T19:21:44.550Z,98021.03
2022-08-21T19:23:52.697Z,98022.56
2022-08-21T19:26:00.755Z,98022.16
2022-08-21T19:30:36.858Z,98021.16
2022-08-21T19:32:45.422Z,98025.47
2022-08-21T19:34:51.204Z,98024.13
2022-08-21T19:36:56.838Z,98027.22
2022-08-21T19:39:07.256Z,98020.69
2022-08-21T19:41:15.830Z,98020.56
2022-08-21T19:45:49.193Z,98022.69
2022-08-21T19:47:55.031Z,98025.63
2022-08-21T19:50:03.261Z,98035.69
2022-08-21T19:52:12.918Z,98035.16
2022-08-21T19:54:22.621Z,98030.97
2022-08-21T19:56:30.158Z,98036.59
2022-08-21T19:58:38.530Z,98035.38
2022-08-21T20:00:44.122Z,98032.16
2022-08-21T20:02:51.661Z,98031.75
2022-08-21T20:04:56.609Z,98032.03
2022-08-21T20:07:01.974Z,98031.66
2022-08-21T20:09:08.365Z,98035.59
2022-08-21T20:11:14.776Z,98024.44
2022-08-21T20:13:22.157Z,98029.22
2022-08-21T20:15:27.180Z,98032.16
2022-08-21T20:17:31.933Z,98038.31
2022-08-21T20:19:40.367Z,98038.91
2022-08-21T20:21:45.257Z,98036.53
2022-08-21T20:23:50.240Z,98036.13
2022-08-21T20:25:56.596Z,98032.94
2022-08-21T20:28:01.421Z,98033.38
2022-08-21T20:30:07.562Z,98032.28
2022-08-21T20:32:14.563Z,98034.25
2022-08-21T20:34:21.275Z,98042.22
2022-08-21T20:36:29.310Z,98032.28
2022-08-21T20:38:34.371Z,98037.88
2022-08-21T20:40:38.915Z,98035.66
2022-08-21T20:42:45.521Z,98031.47
2022-08-21T20:44:50.399Z,98027.72
2022-08-21T20:46:55.855Z,98029.22
2022-08-21T20:49:02.119Z,98035.50
2022-08-21T20:51:12.790Z,98036.78
2022-08-21T20:53:43.131Z,98026.44
2022-08-21T20:55:51.815Z,98037.44
2022-08-21T20:58:03.103Z,98032.56
2022-08-21T21:00:14.435Z,98035.38
2022-08-21T21:02:44.240Z,98036.66
2022-08-21T21:04:53.300Z,98056.31
2022-08-21T21:06:59.251Z,98066.78
2022-08-21T21:09:16.539Z,98057.00
2022-08-21T21:11:26.660Z,98065.78
2022-08-21T21:13:36.052Z,98052.41
2022-08-21T21:15:43.957Z,98049.75
2022-08-21T21:17:53.997Z,98043.91
2022-08-21T21:20:06.021Z,98044.84
2022-08-21T21:22:16.012Z,98048.50
2022-08-21T21:24:29.206Z,98043.06
2022-08-21T21:26:39.731Z,98053.50
2022-08-21T21:28:57.089Z,98055.69
2022-08-21T21:31:03.734Z,98061.84
2022-08-21T21:33:08.905Z,98063.63
2022-08-21T21:35:17.437Z,98066.44
2022-08-21T21:37:44.964Z,98069.09
2022-08-21T21:40:01.666Z,98062.13
2022-08-21T21:42:16.067Z,98070.31
2022-08-21T21:44:42.685Z,98061.13
2022-08-21T21:49:11.629Z,98066.13
2022-08-21T21:51:25.932Z,98073.09
2022-08-21T21:53:45.824Z,98067.38
2022-08-21T21:56:20.599Z,98066.09
2022-08-21T21:59:08.413Z,98072.06
2022-08-21T22:01:19.239Z,98076.06
2022-08-21T22:03:29.177Z,98074.28
2022-08-21T22:05:48.967Z,98077.63
2022-08-21T22:08:00.668Z,98076.06
2022-08-21T22:10:30.068Z,98083.19
2022-08-21T22:12:50.122Z,98082.75
2022-08-21T22:14:59.002Z,98081.34
2022-08-21T22:17:07.082Z,98086.19
2022-08-21T22:19:19.194Z,98083.69
2022-08-21T22:21:30.624Z,98082.59
2022-08-21T22:23:42.934Z,98085.25
2022-08-21T22:25:52.206Z,98080.22
2022-08-21T22:28:07.034Z,98081.16
2022-08-21T22:30:19.050Z,98085.91
2022-08-21T22:32:38.236Z,98079.50
2022-08-21T22:34:45.516Z,98078.06
2022-08-21T22:37:02.988Z,98087.97
2022-08-21T22:39:10.784Z,98086.53
2022-08-21T22:41:19.540Z,98084.06
2022-08-21T22:43:27.880Z,98084.88
2022-08-21T22:45:35.392Z,98087.78
2022-08-21T22:47:43.903Z,98088.16
2022-08-21T22:49:54.227Z,98083.97
2022-08-21T22:52:10.611Z,98091.72
2022-08-21T22:54:27.035Z,98088.75
2022-08-21T22:56:37.118Z,98097.91
2022-08-21T22:58:58.111Z,98092.16
2022-08-21T23:01:07.161Z,98100.38
2022-08-21T23:03:19.609Z,98106.06
2022-08-21T23:05:37.188Z,98103.78
2022-08-21T23:07:49.892Z,98102.50
2022-08-21T23:09:56.131Z,98100.09
2022-08-21T23:12:21.015Z,98107.19
2022-08-21T23:14:30.035Z,98106.09
2022-08-21T23:16:47.253Z,98108.50
2022-08-21T23:19:01.489Z,98115.19
2022-08-21T23:21:14.064Z,98110.31
2022-08-21T23:23:25.597Z,98106.78
2022-08-21T23:25:50.371Z,98104.16
2022-08-21T23:28:06.007Z,98106.78
2022-08-21T23:30:18.517Z,98112.59
2022-08-21T23:32:39.088Z,98108.16
2022-08-21T23:35:06.199Z,98105.66
2022-08-21T23:37:43.980Z,98105.91
2022-08-21T23:40:11.499Z,98105.19
2022-08-21T23:42:35.373Z,98106.88
2022-08-21T23:44:49.061Z,98101.81
2022-08-21T23:47:10.071Z,98105.59
2022-08-21T23:49:27.198Z,98106.66
2022-08-21T23:51:41.562Z,98110.25
2022-08-21T23:54:08.469Z,98114.00
2022-08-21T23:56:24.586Z,98118.31
2022-08-21T23:58:51.000Z,98118.31
